Arturo Ferrigno

Scout - Pescara
4 Apr 2027
Sonntag
Verarbeitung

Persönlichkeit

Anpassungsfähigkeit (6) Ehrgeiz (16) Kontroverse (10) Loyalität (11) Druck (13) Professionalität (1) Fairness (11) Temperament (11)

Profil

Trainerstil Demokratisch
Lizenz Kontinentale A
Entschlossenheit 10
Menschenführung 5
Motivation 5
Disziplin 6
Arbeitszufriedenheit
50%
Ermüdung
0%
Rolle Scout
Gehalt 61.7K p/W
Vertrag 14.03.2029

Leistung

Verhalten Normal
Trainingseffektivität
16%
Spielerentwicklung
65%
Verletzungsprävention
35%
Taktische Umsetzung
25%

Letzte Ereignisse

Nahm an einer Scouting-Besprechung teil 7T her
Spiel beobachtet 7T her
Nahm an einer Scouting-Besprechung teil 14T her
Spiel beobachtet 14T her
Spieler begutachtet 21T her
Spieler begutachtet 21T her
Spiel beobachtet 21T her
Spieler begutachtet 21T her

Aktuell beobachtet

121
Spieler Verein Status Fähigkeit Vertrauen Beobachtet Zuletzt beobachtet Letzte Stimme
Jakub Adkonis Lechia Aktiv 98 / 104 40% 2 14.03.2027 -
Davinchi Getafe Aktiv 120 / 129 40% 1 14.03.2027 -
Ronan Kpakio Preston Aktiv 121 / 124 40% 1 14.03.2027 -
Théo Hansen Hobro Aktiv 97 / 92 40% 2 11.03.2027 -
Augusto Bando Ascoli Aktiv 97 / 111 40% 2 11.03.2027 -
Isaac Frimpong Hearts of Oak Aktiv 88 / 74 40% 1 11.03.2027 -
Marius Courcoul Angers SCO Aktiv 115 / 118 40% 2 10.03.2027 -
Joseph Jones Kryvbas Aktiv 82 / 91 40% 1 10.03.2027 -
Vanja Tomić Radnicki 1923 Aktiv 88 / 87 40% 1 08.03.2027 -
Jaygo van Ommeren Utrecht Aktiv 98 / 112 40% 1 08.03.2027 -
Teun Gijselhart Deportivo La Coruña Aktiv 103 / 112 40% 2 07.03.2027 -
Veis Yıldız Giresunspor Aktiv 74 / 77 40% 1 07.03.2027 -
Raymond Agyemang Aduana Stars Aktiv 94 / 97 40% 1 07.03.2027 -
Elie N'Gatta Sochaux Aktiv 100 / 100 40% 1 06.03.2027 -
Luciano Peluso Giugliano Aktiv 101 / 111 40% 1 06.03.2027 -
Ignacio Perruzzi San Lorenzo Aktiv 129 / 125 40% 1 05.03.2027 -
Marius Louër Angers SCO Aktiv 106 / 108 40% 1 05.03.2027 -
Teo Rodríguez Pagano San Lorenzo Aktiv 115 / 115 40% 1 03.03.2027 -
Luca Barani Forli Aktiv 85 / 96 40% 1 03.03.2027 -
Facundo Di Biasi Gimnasia La Plata Aktiv 115 / 118 40% 1 03.03.2027 -
Camilo Rey Domenech Boca Juniors Aktiv 119 / 119 40% 1 01.03.2027 -
Vasilije Novičić IMT Verloren 97 / 108 40% 1 01.01.2027 -
Alessio Insignito Spezia Aktiv 92 / 103 40% 1 01.01.2027 -
Felix Appiah WAFA Aktiv 89 / 105 40% 1 01.01.2027 -
Brian Figueroa Morelia Aktiv 117 / 104 40% 3 31.12.2026 -
Dominik Yankov Arda Aktiv 121 / 109 40% 1 31.12.2026 -
Ali Soliman Masr El Makasa Aktiv 126 / 111 40% 1 31.12.2026 -
Giovanni Bruzzaniti Catania Aktiv 108 / 108 40% 2 30.12.2026 -
Lorenzo Di Stefano Torres Aktiv 110 / 105 40% 1 30.12.2026 -
Luca Connell Barnsley Aktiv 108 / 111 40% 1 30.12.2026 -
Arinaldo Rrapaj Kolos Aktiv 108 / 107 40% 1 28.12.2026 -
Vitalii Dakhnovskyi Bukovyna Aktiv 119 / 119 40% 1 28.12.2026 -
Denys Kuzyk LNZ Aktiv 123 / 118 40% 1 28.12.2026 -
Serhiy Buletsa Oleksandriya Aktiv 100 / 113 40% 1 26.12.2026 -
Mohammad Javad Hosseinnejad Dinamo Makhachkala Aktiv 100 / 123 40% 1 26.12.2026 -
Kyle John Port Vale Aktiv 110 / 102 40% 1 26.12.2026 -
Juan Bezerra Zamalek Aktiv 121 / 118 40% 2 25.12.2026 -
Agustín Ramírez Inter Abgelehnt 118 / 98 40% 1 25.12.2026 Mehr Infos nötig
Charlie Webster Burton Albion Aktiv 107 / 116 40% 1 25.12.2026 -
Artem Slesar Zorya Aktiv 110 / 109 40% 3 20.12.2026 -
Ibrahim Cissoko Zwolle Aktiv 115 / 127 40% 1 20.12.2026 -
Bar Lin Kryvbas Aktiv 98 / 101 40% 1 18.12.2026 -
Johnly Yfeko Exeter City Aktiv 108 / 117 40% 1 18.12.2026 -
Uerdi Mara Qarabag Aktiv 124 / 118 40% 1 18.12.2026 -
Adil Taoui Lokomotiv Sofia Abgelehnt 116 / 92 40% 1 16.12.2026 Mehr Infos nötig
Robert Skubic NK Domzale Aktiv 103 / 114 40% 1 16.12.2026 -
Juan Pablo Gallego Fehervar Abgelehnt 117 / 117 40% 1 16.12.2026 Mehr Infos nötig
Mohamed Ali Ben Romdhane Al Ahly Aktiv 136 / 127 40% 2 14.12.2026 -
Danyil Alefirenko Chornomorets Aktiv 109 / 103 40% 1 14.12.2026 -
Kyreece Lisbie Colchester United Aktiv 102 / 104 40% 1 14.12.2026 -
Akinkunmi Amoo Ismaily Aktiv 113 / 124 40% 1 11.12.2026 -
Domagoj Bukvić NK Osijek Aktiv 110 / 114 40% 1 11.12.2026 -
Conrad Wallem Valerenga Abgelehnt 119 / 125 40% 5 10.12.2026 Ablehnen
Ştefan Baiaram Universitatea Craiova Abgelehnt 120 / 129 40% 3 10.12.2026 Ablehnen
Francesco Amatucci Cittadella Aktiv 114 / 110 40% 1 06.12.2026 -
Brooklyn Poggenpoel Maritzburg United Aktiv 98 / 117 40% 2 05.12.2026 -
Thabang Matuludi Polokwane City Aktiv 99 / 108 40% 1 05.12.2026 -
Ibrahim Tarek Masr El Makasa Aktiv 117 / 116 40% 1 05.12.2026 -
Stanislav Shopov NK Osijek Aktiv 114 / 117 40% 2 03.12.2026 -
Erick Ngcobo Black Aces Aktiv 115 / 118 40% 2 03.12.2026 -
Luca Chierico Arezzo Aktiv 111 / 104 40% 1 03.12.2026 -
Teboho Tau Ajax Cape Town Aktiv 108 / 124 40% 1 02.12.2026 -
Bienvenue Kanakimana Zbrojovka Brno Aktiv 111 / 113 40% 1 01.12.2026 -
Carlos Paraco Metalist Aktiv 100 / 121 40% 1 01.12.2026 -
Mads Frøkjær Brondby Aktiv 121 / 113 40% 1 01.12.2026 -
Silvio Goričan Istra 1961 Aktiv 105 / 119 40% 1 25.11.2026 -
Lebogang Erasmus Platinum Stars Aktiv 113 / 96 40% 2 22.11.2026 -
Pedro Ramírez Deportivo Riestra Aktiv 121 / 118 40% 1 16.11.2026 -
Alin Fică CFR Cluj Aktiv 117 / 108 40% 1 16.11.2026 -
Razvan Puscas Astra Aktiv 115 / 114 40% 1 16.11.2026 -
Kamogelo Sebelebele Orlando Pirates Aktiv 122 / 111 40% 3 08.11.2026 -
Ayo Akinola Vaduz Aktiv 109 / 102 40% 1 08.11.2026 -
Elías López Aldosivi Aktiv 124 / 112 40% 2 06.11.2026 -
Junior Hernández AIK Aktiv 113 / 124 40% 1 06.11.2026 -
Matías Pellegrini Vélez Aktiv 117 / 112 40% 1 30.10.2026 -
Aljoša Matko Ujpest Aktiv 116 / 117 40% 1 30.10.2026 -
Axel Guerra Chacarita Juniors Aktiv 107 / 106 40% 1 25.10.2026 -
Tommaso Milanese Ascoli Aktiv 112 / 111 40% 2 20.10.2026 -
Juan Pablo Barinaga Patronato Aktiv 116 / 113 40% 1 20.10.2026 -
Rodrigo Herrera Newell's Old Boys Aktiv 119 / 118 40% 1 20.10.2026 -
Michael Liguori Catania Aktiv 113 / 114 40% 1 18.10.2026 -
Dilan Godoy Vélez Aktiv 113 / 109 40% 1 18.10.2026 -
Franco Fagúndez Estudiantes Aktiv 115 / 111 40% 2 17.10.2026 -
Camillo Tavernelli Arezzo Aktiv 112 / 109 40% 1 17.10.2026 -
Josip Mitrović Slaven Belupo Aktiv 128 / 112 40% 1 17.10.2026 -
Samuel Lucero Defensa y Justicia Aktiv 118 / 114 40% 1 15.10.2026 -
Marco Miori Alvarado Aktiv 108 / 103 40% 2 13.10.2026 -
Julián Palacios Unión de Santa Fe Aktiv 121 / 110 40% 2 13.10.2026 -
Jhomier Guerrero Millonarios Aktiv 125 / 110 40% 1 12.10.2026 -
Carlos Paternina Alianza Petrolera Aktiv 108 / 103 40% 1 12.10.2026 -
Juan David Rueda Alianza Petrolera Aktiv 112 / 106 40% 1 10.10.2026 -
Camilo Perez Cortulua Aktiv 119 / 113 40% 1 10.10.2026 -
Matías Machado Racing Aktiv 116 / 103 40% 1 10.10.2026 -
Jannenson Sarmiento Junior Aktiv 122 / 117 40% 3 09.10.2026 -
Alejandro Organista Puebla Aktiv 103 / 119 40% 1 09.10.2026 -
Carlo Adriano Queretaro Aktiv 112 / 101 40% 2 07.10.2026 -
Mateo Zuleta Once Caldas Aktiv 113 / 127 40% 2 07.10.2026 -
Jefry Zapata Once Caldas Aktiv 121 / 125 40% 1 04.10.2026 -
Mateo Garavito Deportivo Pasto Aktiv 118 / 118 40% 1 04.10.2026 -
Paulo Victor Queretaro Aktiv 106 / 102 40% 1 02.10.2026 -
Justo Giani Universidad Catolica Aktiv 127 / 113 40% 1 28.09.2026 -
Cesar Rubio Envigado Aktiv 112 / 113 40% 2 25.09.2026 -
Julián Palacios Envigado Aktiv 110 / 113 40% 1 25.09.2026 -
Juan Pablo De la Reta Maipú Aktiv 109 / 118 40% 1 24.09.2026 -
Agustín Hausch Defensa y Justicia Aktiv 118 / 127 40% 1 20.09.2026 -
Jeremías Rodríguez Puch Atlanta Aktiv 106 / 109 40% 1 19.09.2026 -
Thiago Calone All Boys Aktiv 108 / 119 40% 1 19.09.2026 -
Cristián Zavala Colo-Colo Aktiv 105 / 100 40% 1 19.09.2026 -
Emerson Batalla Atletico Bucaramanga Aktiv 118 / 118 40% 1 17.09.2026 -
Daniel Arcila Leon Aktiv 118 / 123 40% 1 15.09.2026 -
Diogo Guzmán Montevideo City Torque Aktiv 102 / 117 40% 1 14.09.2026 -
Emiliano Viveros Argentinos Juniors Aktiv 124 / 118 40% 1 14.09.2026 -
Ronaldo Pájaro Deportivo Cali Aktiv 110 / 123 40% 1 12.09.2026 -
Eliás Montiel Pachuca Aktiv 132 / 128 40% 1 12.09.2026 -
Nicolás Garayalde Liverpool Montevideo Aktiv 118 / 109 40% 2 11.09.2026 -
Aldair Zárate Atletico Bucaramanga Aktiv 123 / 118 40% 1 11.09.2026 -
Iván Tona Tijuana Aktiv 102 / 110 40% 1 08.09.2026 -
Ayoub Jabbari FC Cincinnati Aktiv 119 / 99 40% 1 08.09.2026 -
Marcel Ruiz Toluca Aktiv 129 / 144 40% 1 01.08.2026 -
Nacho Vidal Oviedo Aktiv 134 / 124 40% 1 01.08.2026 -
Keaton Parks New York City Aktiv 126 / 119 40% 1 01.08.2026 -